Nearby METAR Reports

 

KHQM - Hoquiam,WA, USA
Updated: 09/18/2019 2:53pm
Mostly cloudy
Mostly cloudy
 Wind from NW
Wind: NW 9 mph , 15 km/h
Temperature: 63°F , 17°C
Dew Point: 57°F , 14°C
Humidity: 83%
Barometer: 29.90 inHg , 1012.5 hPa
Clouds: Mostly cloudy
Visibility: 9 miles , 14 km
Cloud details: Mostly cloudy 8500 ft
2019/09/18 21:53 KHQM 182153Z AUTO 31008KT 9SM BKN085 17/14 A2990 RMK AO2 SLP129 T01720139